sensor_id;sensor_type;location;lat;lon;timestamp;P1;durP1;ratioP1;P2;durP2;ratioP2
71973;SDS011;59840;52.122;5.404;2023-07-13T00:00:38;9.05;;;1.15;;
71973;SDS011;59840;52.122;5.404;2023-07-13T00:03:05;4.65;;;0.63;;
71973;SDS011;59840;52.122;5.404;2023-07-13T00:05:37;3.80;;;0.63;;
71973;SDS011;59840;52.122;5.404;2023-07-13T00:08:08;4.40;;;0.70;;
71973;SDS011;59840;52.122;5.404;2023-07-13T00:10:39;2.75;;;0.82;;
71973;SDS011;59840;52.122;5.404;2023-07-13T00:13:11;5.15;;;0.90;;
71973;SDS011;59840;52.122;5.404;2023-07-13T00:15:38;4.65;;;0.70;;
71973;SDS011;59840;52.122;5.404;2023-07-13T00:18:05;6.75;;;1.00;;
71973;SDS011;59840;52.122;5.404;2023-07-13T00:20:41;3.73;;;0.70;;
71973;SDS011;59840;52.122;5.404;2023-07-13T00:23:11;3.30;;;0.73;;
71973;SDS011;59840;52.122;5.404;2023-07-13T00:25:40;4.45;;;1.00;;
71973;SDS011;59840;52.122;5.404;2023-07-13T00:28:07;5.97;;;1.38;;
71973;SDS011;59840;52.122;5.404;2023-07-13T00:30:35;3.30;;;0.82;;
71973;SDS011;59840;52.122;5.404;2023-07-13T00:33:04;4.53;;;1.07;;
71973;SDS011;59840;52.122;5.404;2023-07-13T00:35:43;4.18;;;0.85;;
71973;SDS011;59840;52.122;5.404;2023-07-13T00:38:15;5.03;;;1.00;;
71973;SDS011;59840;52.122;5.404;2023-07-13T00:40:42;2.17;;;0.80;;
71973;SDS011;59840;52.122;5.404;2023-07-13T00:43:13;3.03;;;0.60;;
71973;SDS011;59840;52.122;5.404;2023-07-13T00:48:22;5.45;;;0.80;;
71973;SDS011;59840;52.122;5.404;2023-07-13T00:50:55;3.75;;;0.88;;
71973;SDS011;59840;52.122;5.404;2023-07-13T00:53:25;3.10;;;0.85;;
71973;SDS011;59840;52.122;5.404;2023-07-13T00:55:54;6.38;;;0.93;;
71973;SDS011;59840;52.122;5.404;2023-07-13T00:58:24;5.80;;;0.93;;
71973;SDS011;59840;52.122;5.404;2023-07-13T01:00:52;6.40;;;0.82;;
71973;SDS011;59840;52.122;5.404;2023-07-13T01:03:19;4.05;;;0.70;;
71973;SDS011;59840;52.122;5.404;2023-07-13T01:05:47;5.45;;;0.90;;
71973;SDS011;59840;52.122;5.404;2023-07-13T01:08:20;4.75;;;0.90;;
71973;SDS011;59840;52.122;5.404;2023-07-13T01:10:55;1.87;;;0.97;;
71973;SDS011;59840;52.122;5.404;2023-07-13T01:13:27;4.75;;;0.82;;
71973;SDS011;59840;52.122;5.404;2023-07-13T01:15:55;3.65;;;0.85;;
71973;SDS011;59840;52.122;5.404;2023-07-13T01:18:26;5.45;;;1.00;;
71973;SDS011;59840;52.122;5.404;2023-07-13T01:23:24;3.00;;;0.83;;
71973;SDS011;59840;52.122;5.404;2023-07-13T01:25:52;3.13;;;0.70;;
71973;SDS011;59840;52.122;5.404;2023-07-13T01:28:23;3.97;;;1.15;;
71973;SDS011;59840;52.122;5.404;2023-07-13T01:30:54;4.03;;;0.70;;
71973;SDS011;59840;52.122;5.404;2023-07-13T01:33:22;3.78;;;0.90;;
71973;SDS011;59840;52.122;5.404;2023-07-13T01:35:49;2.57;;;0.60;;
71973;SDS011;59840;52.122;5.404;2023-07-13T01:38:20;6.63;;;0.90;;
71973;SDS011;59840;52.122;5.404;2023-07-13T01:40:51;3.67;;;0.68;;
71973;SDS011;59840;52.122;5.404;2023-07-13T01:43:21;5.95;;;0.80;;
71973;SDS011;59840;52.122;5.404;2023-07-13T01:45:50;2.95;;;0.68;;
71973;SDS011;59840;52.122;5.404;2023-07-13T01:48:17;2.23;;;0.77;;
71973;SDS011;59840;52.122;5.404;2023-07-13T01:50:44;4.68;;;0.90;;
71973;SDS011;59840;52.122;5.404;2023-07-13T01:53:12;4.20;;;1.25;;
71973;SDS011;59840;52.122;5.404;2023-07-13T01:55:39;3.30;;;0.90;;
71973;SDS011;59840;52.122;5.404;2023-07-13T01:58:09;3.92;;;0.80;;
71973;SDS011;59840;52.122;5.404;2023-07-13T02:00:35;5.70;;;1.10;;
71973;SDS011;59840;52.122;5.404;2023-07-13T02:03:05;4.88;;;1.40;;
71973;SDS011;59840;52.122;5.404;2023-07-13T02:05:32;3.90;;;1.25;;
71973;SDS011;59840;52.122;5.404;2023-07-13T02:08:02;4.38;;;0.70;;
71973;SDS011;59840;52.122;5.404;2023-07-13T02:10:31;3.05;;;1.10;;
71973;SDS011;59840;52.122;5.404;2023-07-13T02:12:58;4.60;;;1.00;;
71973;SDS011;59840;52.122;5.404;2023-07-13T02:15:25;4.53;;;0.73;;
71973;SDS011;59840;52.122;5.404;2023-07-13T02:17:52;4.88;;;1.60;;
71973;SDS011;59840;52.122;5.404;2023-07-13T02:20:21;12.98;;;1.48;;
71973;SDS011;59840;52.122;5.404;2023-07-13T02:22:48;4.18;;;0.80;;
71973;SDS011;59840;52.122;5.404;2023-07-13T02:25:17;2.30;;;0.70;;
71973;SDS011;59840;52.122;5.404;2023-07-13T02:27:47;5.78;;;0.80;;
71973;SDS011;59840;52.122;5.404;2023-07-13T02:30:14;4.45;;;0.90;;
71973;SDS011;59840;52.122;5.404;2023-07-13T02:32:46;6.72;;;0.88;;
71973;SDS011;59840;52.122;5.404;2023-07-13T02:35:13;2.97;;;0.90;;
71973;SDS011;59840;52.122;5.404;2023-07-13T02:37:43;3.37;;;1.23;;
71973;SDS011;59840;52.122;5.404;2023-07-13T02:40:10;4.20;;;1.00;;
71973;SDS011;59840;52.122;5.404;2023-07-13T02:42:37;4.13;;;0.88;;
71973;SDS011;59840;52.122;5.404;2023-07-13T02:45:05;5.75;;;1.02;;
71973;SDS011;59840;52.122;5.404;2023-07-13T02:47:33;3.35;;;1.05;;
71973;SDS011;59840;52.122;5.404;2023-07-13T02:50:05;3.50;;;1.00;;
71973;SDS011;59840;52.122;5.404;2023-07-13T02:52:38;5.78;;;0.90;;
71973;SDS011;59840;52.122;5.404;2023-07-13T02:55:05;1.65;;;0.82;;
71973;SDS011;59840;52.122;5.404;2023-07-13T02:57:34;3.83;;;1.10;;
71973;SDS011;59840;52.122;5.404;2023-07-13T03:00:02;2.58;;;0.93;;
71973;SDS011;59840;52.122;5.404;2023-07-13T03:02:35;3.23;;;1.10;;
71973;SDS011;59840;52.122;5.404;2023-07-13T03:05:05;3.72;;;1.02;;
71973;SDS011;59840;52.122;5.404;2023-07-13T03:07:32;3.58;;;1.17;;
71973;SDS011;59840;52.122;5.404;2023-07-13T03:09:59;3.30;;;1.00;;
71973;SDS011;59840;52.122;5.404;2023-07-13T03:12:28;3.20;;;1.00;;
71973;SDS011;59840;52.122;5.404;2023-07-13T03:14:55;4.17;;;1.20;;
71973;SDS011;59840;52.122;5.404;2023-07-13T03:17:25;4.47;;;1.45;;
71973;SDS011;59840;52.122;5.404;2023-07-13T03:19:55;6.78;;;1.25;;
71973;SDS011;59840;52.122;5.404;2023-07-13T03:22:24;4.25;;;1.20;;
71973;SDS011;59840;52.122;5.404;2023-07-13T03:24:51;5.57;;;1.10;;
71973;SDS011;59840;52.122;5.404;2023-07-13T03:27:20;3.43;;;0.90;;
71973;SDS011;59840;52.122;5.404;2023-07-13T03:29:49;5.85;;;1.33;;
71973;SDS011;59840;52.122;5.404;2023-07-13T03:32:16;3.63;;;1.20;;
71973;SDS011;59840;52.122;5.404;2023-07-13T03:34:43;4.95;;;1.70;;
71973;SDS011;59840;52.122;5.404;2023-07-13T03:37:12;4.60;;;1.38;;
71973;SDS011;59840;52.122;5.404;2023-07-13T03:39:39;3.63;;;1.13;;
71973;SDS011;59840;52.122;5.404;2023-07-13T03:42:06;4.53;;;1.40;;
71973;SDS011;59840;52.122;5.404;2023-07-13T03:44:35;4.88;;;1.50;;
71973;SDS011;59840;52.122;5.404;2023-07-13T03:47:02;6.30;;;1.50;;
71973;SDS011;59840;52.122;5.404;2023-07-13T03:49:32;7.13;;;1.70;;
71973;SDS011;59840;52.122;5.404;2023-07-13T03:51:59;5.53;;;1.60;;
71973;SDS011;59840;52.122;5.404;2023-07-13T03:54:25;4.55;;;1.33;;
71973;SDS011;59840;52.122;5.404;2023-07-13T03:56:58;6.70;;;1.70;;
71973;SDS011;59840;52.122;5.404;2023-07-13T03:59:25;3.95;;;1.60;;
71973;SDS011;59840;52.122;5.404;2023-07-13T04:01:54;6.57;;;1.45;;
71973;SDS011;59840;52.122;5.404;2023-07-13T04:04:23;2.47;;;1.10;;
71973;SDS011;59840;52.122;5.404;2023-07-13T04:06:50;3.72;;;1.73;;
71973;SDS011;59840;52.122;5.404;2023-07-13T04:09:19;5.35;;;1.55;;
71973;SDS011;59840;52.122;5.404;2023-07-13T04:11:45;4.63;;;1.33;;
71973;SDS011;59840;52.122;5.404;2023-07-13T04:14:12;3.42;;;1.38;;
71973;SDS011;59840;52.122;5.404;2023-07-13T04:16:39;7.50;;;1.27;;
71973;SDS011;59840;52.122;5.404;2023-07-13T04:19:06;3.85;;;1.33;;
71973;SDS011;59840;52.122;5.404;2023-07-13T04:21:34;6.45;;;1.80;;
71973;SDS011;59840;52.122;5.404;2023-07-13T04:24:03;7.55;;;1.60;;
71973;SDS011;59840;52.122;5.404;2023-07-13T04:26:30;6.88;;;1.80;;
71973;SDS011;59840;52.122;5.404;2023-07-13T04:28:57;3.30;;;1.50;;
71973;SDS011;59840;52.122;5.404;2023-07-13T04:31:24;4.88;;;1.45;;
71973;SDS011;59840;52.122;5.404;2023-07-13T04:33:51;6.82;;;1.52;;
71973;SDS011;59840;52.122;5.404;2023-07-13T04:36:20;5.38;;;1.67;;
71973;SDS011;59840;52.122;5.404;2023-07-13T04:38:49;3.70;;;1.40;;
71973;SDS011;59840;52.122;5.404;2023-07-13T04:41:16;4.63;;;1.90;;
71973;SDS011;59840;52.122;5.404;2023-07-13T04:43:46;3.90;;;1.73;;
71973;SDS011;59840;52.122;5.404;2023-07-13T04:46:13;4.57;;;1.80;;
71973;SDS011;59840;52.122;5.404;2023-07-13T04:48:45;4.68;;;1.83;;
71973;SDS011;59840;52.122;5.404;2023-07-13T04:51:13;6.13;;;2.00;;
71973;SDS011;59840;52.122;5.404;2023-07-13T04:53:40;7.87;;;1.70;;
71973;SDS011;59840;52.122;5.404;2023-07-13T04:56:09;9.52;;;2.17;;
71973;SDS011;59840;52.122;5.404;2023-07-13T04:58:36;7.25;;;2.13;;
71973;SDS011;59840;52.122;5.404;2023-07-13T05:01:04;4.13;;;1.92;;
71973;SDS011;59840;52.122;5.404;2023-07-13T05:03:32;6.15;;;2.10;;
71973;SDS011;59840;52.122;5.404;2023-07-13T05:06:02;10.70;;;2.33;;
71973;SDS011;59840;52.122;5.404;2023-07-13T05:08:31;6.05;;;1.90;;
71973;SDS011;59840;52.122;5.404;2023-07-13T05:11:01;10.00;;;2.33;;
71973;SDS011;59840;52.122;5.404;2023-07-13T05:13:30;9.18;;;2.10;;
71973;SDS011;59840;52.122;5.404;2023-07-13T05:16:00;9.55;;;2.20;;
71973;SDS011;59840;52.122;5.404;2023-07-13T05:18:32;7.50;;;2.13;;
71973;SDS011;59840;52.122;5.404;2023-07-13T05:21:00;9.73;;;2.88;;
71973;SDS011;59840;52.122;5.404;2023-07-13T05:23:33;7.18;;;2.25;;
71973;SDS011;59840;52.122;5.404;2023-07-13T05:26:00;11.95;;;2.50;;
71973;SDS011;59840;52.122;5.404;2023-07-13T05:28:28;7.05;;;2.33;;
71973;SDS011;59840;52.122;5.404;2023-07-13T05:30:59;7.90;;;2.73;;
71973;SDS011;59840;52.122;5.404;2023-07-13T05:33:32;9.00;;;2.78;;
71973;SDS011;59840;52.122;5.404;2023-07-13T05:35:59;9.32;;;3.05;;
71973;SDS011;59840;52.122;5.404;2023-07-13T05:38:30;10.57;;;2.90;;
71973;SDS011;59840;52.122;5.404;2023-07-13T05:40:57;9.02;;;3.33;;
71973;SDS011;59840;52.122;5.404;2023-07-13T05:43:24;12.97;;;3.83;;
71973;SDS011;59840;52.122;5.404;2023-07-13T05:45:55;10.55;;;4.03;;
71973;SDS011;59840;52.122;5.404;2023-07-13T05:48:26;13.48;;;4.47;;
71973;SDS011;59840;52.122;5.404;2023-07-13T05:50:52;14.48;;;4.25;;
71973;SDS011;59840;52.122;5.404;2023-07-13T05:53:20;8.20;;;4.35;;
71973;SDS011;59840;52.122;5.404;2023-07-13T05:55:47;9.07;;;3.90;;
71973;SDS011;59840;52.122;5.404;2023-07-13T05:58:24;10.90;;;4.20;;
71973;SDS011;59840;52.122;5.404;2023-07-13T06:01:04;11.88;;;4.15;;
71973;SDS011;59840;52.122;5.404;2023-07-13T06:03:33;10.77;;;4.60;;
71973;SDS011;59840;52.122;5.404;2023-07-13T06:06:00;12.00;;;4.45;;
71973;SDS011;59840;52.122;5.404;2023-07-13T06:08:27;11.40;;;4.30;;
71973;SDS011;59840;52.122;5.404;2023-07-13T06:11:01;9.70;;;4.22;;
71973;SDS011;59840;52.122;5.404;2023-07-13T06:13:29;8.75;;;4.43;;
71973;SDS011;59840;52.122;5.404;2023-07-13T06:16:00;10.55;;;5.00;;
71973;SDS011;59840;52.122;5.404;2023-07-13T06:18:39;11.98;;;5.25;;
71973;SDS011;59840;52.122;5.404;2023-07-13T06:21:11;14.80;;;5.17;;
71973;SDS011;59840;52.122;5.404;2023-07-13T06:23:41;10.38;;;4.80;;
71973;SDS011;59840;52.122;5.404;2023-07-13T06:26:08;13.60;;;5.18;;
71973;SDS011;59840;52.122;5.404;2023-07-13T06:28:35;13.52;;;5.40;;
71973;SDS011;59840;52.122;5.404;2023-07-13T06:31:08;10.57;;;4.53;;
71973;SDS011;59840;52.122;5.404;2023-07-13T06:33:37;12.00;;;4.73;;
71973;SDS011;59840;52.122;5.404;2023-07-13T06:36:08;15.20;;;6.07;;
71973;SDS011;59840;52.122;5.404;2023-07-13T06:38:38;10.57;;;4.82;;
71973;SDS011;59840;52.122;5.404;2023-07-13T06:41:06;11.23;;;5.00;;
71973;SDS011;59840;52.122;5.404;2023-07-13T06:43:36;12.30;;;5.13;;
71973;SDS011;59840;52.122;5.404;2023-07-13T06:46:05;12.23;;;6.13;;
71973;SDS011;59840;52.122;5.404;2023-07-13T06:48:34;11.05;;;5.40;;
71973;SDS011;59840;52.122;5.404;2023-07-13T06:51:03;10.85;;;5.93;;
71973;SDS011;59840;52.122;5.404;2023-07-13T06:53:30;12.82;;;5.45;;
71973;SDS011;59840;52.122;5.404;2023-07-13T06:55:57;12.77;;;5.55;;
71973;SDS011;59840;52.122;5.404;2023-07-13T06:58:27;12.27;;;5.67;;
71973;SDS011;59840;52.122;5.404;2023-07-13T07:00:55;11.25;;;5.35;;
71973;SDS011;59840;52.122;5.404;2023-07-13T07:03:22;12.23;;;5.75;;
71973;SDS011;59840;52.122;5.404;2023-07-13T07:05:50;9.65;;;5.13;;
71973;SDS011;59840;52.122;5.404;2023-07-13T07:08:16;11.65;;;5.90;;
71973;SDS011;59840;52.122;5.404;2023-07-13T07:10:43;11.63;;;6.33;;
71973;SDS011;59840;52.122;5.404;2023-07-13T07:13:10;12.95;;;5.57;;
71973;SDS011;59840;52.122;5.404;2023-07-13T07:15:36;13.00;;;6.43;;
71973;SDS011;59840;52.122;5.404;2023-07-13T07:18:03;10.57;;;5.30;;
71973;SDS011;59840;52.122;5.404;2023-07-13T07:20:30;12.25;;;5.93;;
71973;SDS011;59840;52.122;5.404;2023-07-13T07:22:59;11.97;;;5.90;;
71973;SDS011;59840;52.122;5.404;2023-07-13T07:25:26;14.68;;;6.22;;
71973;SDS011;59840;52.122;5.404;2023-07-13T07:27:53;11.40;;;6.22;;
71973;SDS011;59840;52.122;5.404;2023-07-13T07:30:22;10.95;;;6.32;;
71973;SDS011;59840;52.122;5.404;2023-07-13T07:32:52;11.77;;;6.32;;
71973;SDS011;59840;52.122;5.404;2023-07-13T07:35:23;15.10;;;6.03;;
71973;SDS011;59840;52.122;5.404;2023-07-13T07:37:52;10.88;;;5.88;;
71973;SDS011;59840;52.122;5.404;2023-07-13T07:40:19;15.55;;;6.68;;
71973;SDS011;59840;52.122;5.404;2023-07-13T07:42:48;11.35;;;6.22;;
71973;SDS011;59840;52.122;5.404;2023-07-13T07:45:15;14.18;;;6.70;;
71973;SDS011;59840;52.122;5.404;2023-07-13T07:47:42;12.87;;;6.40;;
71973;SDS011;59840;52.122;5.404;2023-07-13T07:50:09;12.32;;;6.80;;
71973;SDS011;59840;52.122;5.404;2023-07-13T07:52:36;12.75;;;6.43;;
71973;SDS011;59840;52.122;5.404;2023-07-13T07:58:06;13.27;;;6.82;;
71973;SDS011;59840;52.122;5.404;2023-07-13T08:00:52;12.73;;;6.27;;
71973;SDS011;59840;52.122;5.404;2023-07-13T08:03:31;11.52;;;6.35;;
71973;SDS011;59840;52.122;5.404;2023-07-13T08:06:23;12.25;;;5.80;;
71973;SDS011;59840;52.122;5.404;2023-07-13T08:11:57;9.60;;;5.85;;
71973;SDS011;59840;52.122;5.404;2023-07-13T08:17:48;11.82;;;5.60;;
71973;SDS011;59840;52.122;5.404;2023-07-13T08:20:44;8.35;;;5.25;;
71973;SDS011;59840;52.122;5.404;2023-07-13T08:23:44;14.95;;;5.47;;
71973;SDS011;59840;52.122;5.404;2023-07-13T08:26:26;11.13;;;4.85;;
71973;SDS011;59840;52.122;5.404;2023-07-13T08:28:58;8.67;;;4.13;;
71973;SDS011;59840;52.122;5.404;2023-07-13T08:38:31;9.60;;;3.90;;
71973;SDS011;59840;52.122;5.404;2023-07-13T08:54:42;3.33;;;1.45;;
71973;SDS011;59840;52.122;5.404;2023-07-13T08:57:21;4.10;;;1.40;;
71973;SDS011;59840;52.122;5.404;2023-07-13T08:59:56;2.90;;;1.30;;
71973;SDS011;59840;52.122;5.404;2023-07-13T09:04:57;3.97;;;1.75;;
71973;SDS011;59840;52.122;5.404;2023-07-13T09:07:39;2.22;;;1.23;;
71973;SDS011;59840;52.122;5.404;2023-07-13T09:10:18;2.15;;;1.50;;
71973;SDS011;59840;52.122;5.404;2023-07-13T09:15:37;2.42;;;1.42;;
71973;SDS011;59840;52.122;5.404;2023-07-13T09:18:11;5.75;;;1.90;;
71973;SDS011;59840;52.122;5.404;2023-07-13T09:21:02;3.47;;;1.77;;
71973;SDS011;59840;52.122;5.404;2023-07-13T09:23:43;3.60;;;1.88;;
71973;SDS011;59840;52.122;5.404;2023-07-13T09:26:14;2.90;;;1.50;;
71973;SDS011;59840;52.122;5.404;2023-07-13T09:28:45;4.70;;;1.77;;
71973;SDS011;59840;52.122;5.404;2023-07-13T09:31:15;4.15;;;2.05;;
71973;SDS011;59840;52.122;5.404;2023-07-13T09:33:45;4.53;;;1.50;;
71973;SDS011;59840;52.122;5.404;2023-07-13T09:38:41;2.67;;;1.80;;
71973;SDS011;59840;52.122;5.404;2023-07-13T09:41:14;3.60;;;1.50;;
71973;SDS011;59840;52.122;5.404;2023-07-13T09:44:06;6.10;;;1.40;;
71973;SDS011;59840;52.122;5.404;2023-07-13T09:46:36;3.88;;;1.40;;
71973;SDS011;59840;52.122;5.404;2023-07-13T09:49:02;2.70;;;1.40;;
71973;SDS011;59840;52.122;5.404;2023-07-13T09:51:29;4.03;;;1.37;;
71973;SDS011;59840;52.122;5.404;2023-07-13T09:53:56;5.45;;;1.55;;
71973;SDS011;59840;52.122;5.404;2023-07-13T09:56:24;7.25;;;2.08;;
71973;SDS011;59840;52.122;5.404;2023-07-13T09:58:53;4.70;;;1.63;;
71973;SDS011;59840;52.122;5.404;2023-07-13T10:01:33;4.88;;;1.95;;
71973;SDS011;59840;52.122;5.404;2023-07-13T10:04:11;2.87;;;1.40;;
71973;SDS011;59840;52.122;5.404;2023-07-13T10:06:40;3.03;;;1.50;;
71973;SDS011;59840;52.122;5.404;2023-07-13T10:09:10;4.20;;;1.70;;
71973;SDS011;59840;52.122;5.404;2023-07-13T10:11:41;5.35;;;1.63;;
71973;SDS011;59840;52.122;5.404;2023-07-13T10:14:18;2.83;;;1.80;;
71973;SDS011;59840;52.122;5.404;2023-07-13T10:16:53;3.37;;;1.80;;
71973;SDS011;59840;52.122;5.404;2023-07-13T10:19:32;3.78;;;1.77;;
71973;SDS011;59840;52.122;5.404;2023-07-13T10:22:02;3.28;;;2.00;;
71973;SDS011;59840;52.122;5.404;2023-07-13T10:24:37;3.58;;;1.92;;
71973;SDS011;59840;52.122;5.404;2023-07-13T10:30:22;4.43;;;1.93;;
71973;SDS011;59840;52.122;5.404;2023-07-13T10:32:46;3.17;;;2.63;;
71973;SDS011;59840;52.122;5.404;2023-07-13T10:35:14;4.15;;;2.30;;
71973;SDS011;59840;52.122;5.404;2023-07-13T10:38:06;6.07;;;2.30;;
71973;SDS011;59840;52.122;5.404;2023-07-13T10:40:39;9.15;;;2.22;;
71973;SDS011;59840;52.122;5.404;2023-07-13T10:43:16;3.50;;;2.00;;
71973;SDS011;59840;52.122;5.404;2023-07-13T10:45:46;7.03;;;2.20;;
71973;SDS011;59840;52.122;5.404;2023-07-13T10:48:17;4.97;;;1.85;;
71973;SDS011;59840;52.122;5.404;2023-07-13T10:50:46;2.97;;;1.70;;
71973;SDS011;59840;52.122;5.404;2023-07-13T10:53:54;3.38;;;1.63;;
71973;SDS011;59840;52.122;5.404;2023-07-13T10:59:09;3.85;;;2.00;;
71973;SDS011;59840;52.122;5.404;2023-07-13T11:01:39;4.00;;;1.50;;
71973;SDS011;59840;52.122;5.404;2023-07-13T11:04:19;1.90;;;1.50;;
71973;SDS011;59840;52.122;5.404;2023-07-13T11:06:47;4.32;;;1.50;;
71973;SDS011;59840;52.122;5.404;2023-07-13T11:09:30;3.60;;;1.27;;
71973;SDS011;59840;52.122;5.404;2023-07-13T11:12:26;2.47;;;1.23;;
71973;SDS011;59840;52.122;5.404;2023-07-13T11:17:32;3.78;;;1.50;;
71973;SDS011;59840;52.122;5.404;2023-07-13T11:22:49;2.87;;;1.60;;
71973;SDS011;59840;52.122;5.404;2023-07-13T11:30:46;3.00;;;1.50;;
71973;SDS011;59840;52.122;5.404;2023-07-13T11:39:01;3.60;;;1.95;;
71973;SDS011;59840;52.122;5.404;2023-07-13T11:41:37;2.58;;;1.75;;
71973;SDS011;59840;52.122;5.404;2023-07-13T11:44:14;3.75;;;1.90;;
71973;SDS011;59840;52.122;5.404;2023-07-13T11:46:54;3.28;;;1.90;;
71973;SDS011;59840;52.122;5.404;2023-07-13T11:49:31;2.93;;;1.43;;
71973;SDS011;59840;52.122;5.404;2023-07-13T11:52:02;3.95;;;1.88;;
71973;SDS011;59840;52.122;5.404;2023-07-13T11:54:30;6.38;;;1.80;;
71973;SDS011;59840;52.122;5.404;2023-07-13T11:57:01;3.15;;;1.63;;
71973;SDS011;59840;52.122;5.404;2023-07-13T11:59:46;3.63;;;1.80;;
71973;SDS011;59840;52.122;5.404;2023-07-13T12:02:16;3.33;;;1.67;;
71973;SDS011;59840;52.122;5.404;2023-07-13T12:04:52;2.58;;;1.58;;
71973;SDS011;59840;52.122;5.404;2023-07-13T12:07:19;2.78;;;1.98;;
71973;SDS011;59840;52.122;5.404;2023-07-13T12:09:47;4.20;;;2.22;;
71973;SDS011;59840;52.122;5.404;2023-07-13T12:12:18;3.35;;;2.50;;
71973;SDS011;59840;52.122;5.404;2023-07-13T12:14:51;4.00;;;2.27;;
71973;SDS011;59840;52.122;5.404;2023-07-13T12:17:20;5.18;;;2.30;;
71973;SDS011;59840;52.122;5.404;2023-07-13T12:19:50;6.18;;;2.42;;
71973;SDS011;59840;52.122;5.404;2023-07-13T12:22:20;4.40;;;2.50;;
71973;SDS011;59840;52.122;5.404;2023-07-13T12:24:47;5.18;;;2.30;;
71973;SDS011;59840;52.122;5.404;2023-07-13T12:27:25;4.33;;;2.23;;
71973;SDS011;59840;52.122;5.404;2023-07-13T12:30:01;2.55;;;1.95;;
71973;SDS011;59840;52.122;5.404;2023-07-13T12:32:32;5.72;;;2.00;;
71973;SDS011;59840;52.122;5.404;2023-07-13T12:35:16;5.20;;;2.15;;
71973;SDS011;59840;52.122;5.404;2023-07-13T12:37:48;5.80;;;2.35;;
71973;SDS011;59840;52.122;5.404;2023-07-13T12:40:16;3.67;;;1.90;;
71973;SDS011;59840;52.122;5.404;2023-07-13T12:42:53;3.80;;;2.05;;
71973;SDS011;59840;52.122;5.404;2023-07-13T12:45:21;3.17;;;1.80;;
71973;SDS011;59840;52.122;5.404;2023-07-13T12:48:03;2.47;;;1.55;;
71973;SDS011;59840;52.122;5.404;2023-07-13T12:50:39;4.40;;;1.80;;
71973;SDS011;59840;52.122;5.404;2023-07-13T12:53:12;3.87;;;1.70;;
71973;SDS011;59840;52.122;5.404;2023-07-13T12:55:47;4.40;;;2.10;;
71973;SDS011;59840;52.122;5.404;2023-07-13T12:58:27;4.38;;;1.80;;
71973;SDS011;59840;52.122;5.404;2023-07-13T13:00:57;2.83;;;1.95;;
71973;SDS011;59840;52.122;5.404;2023-07-13T13:06:01;3.60;;;1.70;;
71973;SDS011;59840;52.122;5.404;2023-07-13T13:08:54;2.42;;;1.63;;
71973;SDS011;59840;52.122;5.404;2023-07-13T13:11:24;4.82;;;2.45;;
71973;SDS011;59840;52.122;5.404;2023-07-13T13:13:52;4.05;;;1.83;;
71973;SDS011;59840;52.122;5.404;2023-07-13T13:19:18;4.53;;;1.80;;
71973;SDS011;59840;52.122;5.404;2023-07-13T13:21:48;3.17;;;1.45;;
71973;SDS011;59840;52.122;5.404;2023-07-13T13:24:19;5.85;;;1.80;;
71973;SDS011;59840;52.122;5.404;2023-07-13T13:26:47;3.33;;;1.33;;
71973;SDS011;59840;52.122;5.404;2023-07-13T13:29:16;2.42;;;1.80;;
71973;SDS011;59840;52.122;5.404;2023-07-13T13:31:46;4.53;;;1.50;;
71973;SDS011;59840;52.122;5.404;2023-07-13T13:34:13;4.57;;;1.63;;
71973;SDS011;59840;52.122;5.404;2023-07-13T13:36:42;2.33;;;1.75;;
71973;SDS011;59840;52.122;5.404;2023-07-13T13:39:20;3.65;;;1.63;;
71973;SDS011;59840;52.122;5.404;2023-07-13T13:42:20;4.97;;;2.65;;
71973;SDS011;59840;52.122;5.404;2023-07-13T13:44:48;3.30;;;1.60;;
71973;SDS011;59840;52.122;5.404;2023-07-13T13:47:26;2.50;;;1.52;;
71973;SDS011;59840;52.122;5.404;2023-07-13T13:49:56;5.88;;;1.70;;
71973;SDS011;59840;52.122;5.404;2023-07-13T13:52:23;3.13;;;1.50;;
71973;SDS011;59840;52.122;5.404;2023-07-13T13:54:50;3.65;;;1.60;;
71973;SDS011;59840;52.122;5.404;2023-07-13T13:57:22;2.17;;;1.60;;
71973;SDS011;59840;52.122;5.404;2023-07-13T13:59:51;3.67;;;1.65;;
71973;SDS011;59840;52.122;5.404;2023-07-13T14:02:25;2.95;;;1.60;;
71973;SDS011;59840;52.122;5.404;2023-07-13T14:04:59;1.90;;;1.60;;
71973;SDS011;59840;52.122;5.404;2023-07-13T14:07:27;3.50;;;2.03;;
71973;SDS011;59840;52.122;5.404;2023-07-13T14:09:56;1.77;;;1.50;;
71973;SDS011;59840;52.122;5.404;2023-07-13T14:12:25;3.47;;;1.70;;
71973;SDS011;59840;52.122;5.404;2023-07-13T14:14:55;6.00;;;1.88;;
71973;SDS011;59840;52.122;5.404;2023-07-13T14:17:25;3.15;;;1.63;;
71973;SDS011;59840;52.122;5.404;2023-07-13T14:19:53;2.67;;;1.63;;
71973;SDS011;59840;52.122;5.404;2023-07-13T14:22:24;3.50;;;1.50;;
71973;SDS011;59840;52.122;5.404;2023-07-13T14:24:52;2.85;;;1.60;;
71973;SDS011;59840;52.122;5.404;2023-07-13T14:27:20;3.20;;;1.60;;
71973;SDS011;59840;52.122;5.404;2023-07-13T14:29:47;3.85;;;1.67;;
71973;SDS011;59840;52.122;5.404;2023-07-13T14:32:14;2.88;;;1.52;;
71973;SDS011;59840;52.122;5.404;2023-07-13T14:34:40;4.00;;;1.40;;
71973;SDS011;59840;52.122;5.404;2023-07-13T14:37:12;3.13;;;1.55;;
71973;SDS011;59840;52.122;5.404;2023-07-13T14:39:42;3.08;;;1.40;;
71973;SDS011;59840;52.122;5.404;2023-07-13T14:42:10;2.05;;;1.40;;
71973;SDS011;59840;52.122;5.404;2023-07-13T14:44:39;2.45;;;1.80;;
71973;SDS011;59840;52.122;5.404;2023-07-13T14:47:06;3.83;;;1.40;;
71973;SDS011;59840;52.122;5.404;2023-07-13T14:52:13;2.35;;;1.40;;
71973;SDS011;59840;52.122;5.404;2023-07-13T14:54:51;2.95;;;1.50;;
71973;SDS011;59840;52.122;5.404;2023-07-13T14:57:18;3.65;;;1.50;;
71973;SDS011;59840;52.122;5.404;2023-07-13T14:59:46;3.13;;;1.47;;
71973;SDS011;59840;52.122;5.404;2023-07-13T15:05:00;4.18;;;1.45;;
71973;SDS011;59840;52.122;5.404;2023-07-13T15:07:29;4.57;;;1.30;;
71973;SDS011;59840;52.122;5.404;2023-07-13T15:09:56;5.18;;;1.38;;
71973;SDS011;59840;52.122;5.404;2023-07-13T15:12:23;3.33;;;1.23;;
71973;SDS011;59840;52.122;5.404;2023-07-13T15:14:49;2.45;;;1.63;;
71973;SDS011;59840;52.122;5.404;2023-07-13T15:17:34;3.35;;;1.40;;
71973;SDS011;59840;52.122;5.404;2023-07-13T15:20:17;4.22;;;1.73;;
71973;SDS011;59840;52.122;5.404;2023-07-13T15:22:47;3.00;;;1.20;;
71973;SDS011;59840;52.122;5.404;2023-07-13T15:25:19;2.27;;;1.00;;
71973;SDS011;59840;52.122;5.404;2023-07-13T15:27:47;2.13;;;1.23;;
71973;SDS011;59840;52.122;5.404;2023-07-13T15:30:16;2.70;;;1.75;;
71973;SDS011;59840;52.122;5.404;2023-07-13T15:32:43;2.50;;;1.38;;
71973;SDS011;59840;52.122;5.404;2023-07-13T15:35:15;2.80;;;1.50;;
71973;SDS011;59840;52.122;5.404;2023-07-13T15:37:43;4.17;;;1.37;;
71973;SDS011;59840;52.122;5.404;2023-07-13T15:40:11;5.05;;;1.25;;
71973;SDS011;59840;52.122;5.404;2023-07-13T15:42:40;2.45;;;1.27;;
71973;SDS011;59840;52.122;5.404;2023-07-13T15:45:17;2.15;;;1.30;;
71973;SDS011;59840;52.122;5.404;2023-07-13T15:47:49;3.88;;;1.10;;
71973;SDS011;59840;52.122;5.404;2023-07-13T15:50:17;1.97;;;1.27;;
71973;SDS011;59840;52.122;5.404;2023-07-13T15:52:53;3.28;;;0.95;;
71973;SDS011;59840;52.122;5.404;2023-07-13T15:55:21;2.72;;;1.38;;
71973;SDS011;59840;52.122;5.404;2023-07-13T15:57:49;2.78;;;1.00;;
71973;SDS011;59840;52.122;5.404;2023-07-13T16:00:19;2.10;;;0.90;;
71973;SDS011;59840;52.122;5.404;2023-07-13T16:02:47;2.00;;;0.90;;
71973;SDS011;59840;52.122;5.404;2023-07-13T16:05:17;2.22;;;0.93;;
71973;SDS011;59840;52.122;5.404;2023-07-13T16:07:46;1.95;;;1.05;;
71973;SDS011;59840;52.122;5.404;2023-07-13T16:10:17;2.58;;;1.00;;
71973;SDS011;59840;52.122;5.404;2023-07-13T16:12:48;2.58;;;0.90;;
71973;SDS011;59840;52.122;5.404;2023-07-13T16:15:16;1.70;;;1.00;;
71973;SDS011;59840;52.122;5.404;2023-07-13T16:17:45;1.83;;;1.15;;
71973;SDS011;59840;52.122;5.404;2023-07-13T16:20:13;3.35;;;1.67;;
71973;SDS011;59840;52.122;5.404;2023-07-13T16:22:41;2.78;;;1.10;;